MiSS Claire — WDD2762 — position and weather

sailwx.info

Track history (hours):
 
Tides and Currents Weather Stations Pressure Air Temp Water Temp Dewpoint Dewpoint Depression Visibility Wind Speed Wind Dir Waves Ship Positions

MiSS Claire

Owner: Captain Elliott's Party Boats, Inc., Freeport, TX. More information available from US FCC via Universal Licensing System and Coast Guard Vessel Documentation Center.

Last reported at 2017-Sep-24 10:31 UTC. Time now 2017-Sep-24 10:40 UTC.
Position N 29°48' W 092°09'.

Length 52 m; draft 3.5 m.

Type: Passenger vessel. MMSI: 367119570.

Date/timePositionNaut miles runAvg speedWind from/ knotsBaromVisibWave heightAir tempDewpointWater temp
2017-Sep-24 10:31N 29°48' W 092°09'0 0.0
2017-Sep-24 10:01N 29°48' W 092°09'0 0.0
2017-Sep-24 09:30N 29°48' W 092°09'0 0.0
2017-Sep-24 09:01N 29°48' W 092°09'0 0.0
2017-Sep-24 08:30N 29°48' W 092°09'0 0.0
2017-Sep-24 08:00N 29°48' W 092°09'0 0.0
2017-Sep-24 07:31N 29°48' W 092°09'0 0.0
2017-Sep-24 07:00N 29°48' W 092°09'0 0.0
2017-Sep-24 06:31N 29°48' W 092°09'0 0.0
2017-Sep-24 06:01N 29°48' W 092°09'0 0.0
2017-Sep-24 05:30N 29°48' W 092°09'0 0.0
2017-Sep-24 05:00N 29°48' W 092°09'1 1.3
2017-Sep-24 04:30N 29°47' W 092°09'9 1.6
2017-Sep-23 23:09N 29°40' W 092°15'319.3
2017-Sep-23 23:00N 29°43' W 092°15'713.1
2017-Sep-23 22:30N 29°47' W 092°09'0 0.9
2017-Sep-23 22:00N 29°47' W 092°09'0 0.0
2017-Sep-23 21:30N 29°47' W 092°09'0 0.0
2017-Sep-23 21:00N 29°47' W 092°09'0 0.0
2017-Sep-23 20:30N 29°47' W 092°09'0 0.0
2017-Sep-23 20:00N 29°47' W 092°09'9 0.2
2017-Sep-21 20:54N 29°41' W 092°15'615.5
2017-Sep-21 20:31N 29°46' W 092°12'3 6.2
2017-Sep-21 20:01N 29°48' W 092°09'0 0.0
2017-Sep-21 19:27N 29°48' W 092°09'0 0.0
2017-Sep-21 19:01N 29°48' W 092°09'0 0.0
2017-Sep-21 18:31N 29°48' W 092°09'0 0.0
2017-Sep-21 18:01N 29°48' W 092°09'0 0.1
2017-Sep-21 17:30N 29°47' W 092°09'0 0.0
2017-Sep-21 17:01N 29°47' W 092°09'0 0.0
2017-Sep-21 16:24N 29°47' W 092°09'0 0.0
2017-Sep-21 16:01N 29°47' W 092°09'0 0.0
2017-Sep-21 15:24N 29°47' W 092°09'0 0.7
2017-Sep-21 15:00N 29°47' W 092°09'9 1.7
2017-Sep-21 09:43N 29°41' W 092°15'419.4
2017-Sep-21 09:31N 29°44' W 092°14'5 9.7
2017-Sep-21 09:00N 29°47' W 092°09'1 1.2
2017-Sep-21 08:30N 29°47' W 092°09'0 0.0
2017-Sep-21 08:01N 29°47' W 092°09'0 0.0
2017-Sep-21 07:30N 29°47' W 092°09'0 0.0
2017-Sep-21 07:01N 29°47' W 092°09'0 0.0
2017-Sep-21 06:31N 29°47' W 092°09'0 0.1
2017-Sep-21 06:01N 29°48' W 092°09'0 0.0
2017-Sep-21 05:31N 29°48' W 092°09'0 0.0
2017-Sep-21 05:01N 29°48' W 092°09'0 0.0
2017-Sep-21 04:31N 29°48' W 092°09'0 0.0
2017-Sep-21 04:00N 29°48' W 092°09'0 0.0
2017-Sep-21 03:31N 29°48' W 092°09'0 0.0
2017-Sep-21 03:01N 29°48' W 092°09'0 0.0
2017-Sep-21 02:30N 29°48' W 092°09'0 0.0
2017-Sep-21 02:01N 29°48' W 092°09'0 0.0
2017-Sep-21 01:31N 29°48' W 092°09'0 0.0
2017-Sep-21 01:01N 29°48' W 092°09'0 0.0
2017-Sep-21 00:31N 29°48' W 092°09'0 0.0
2017-Sep-21 00:01N 29°48' W 092°09'0 0.0
2017-Sep-20 23:31N 29°48' W 092°09'0 0.0
2017-Sep-20 23:00N 29°48' W 092°09'0 0.0
2017-Sep-20 22:31N 29°48' W 092°09'0 0.0
2017-Sep-20 22:01N 29°48' W 092°09'0 0.0
2017-Sep-20 21:31N 29°48' W 092°09'0 0.0
2017-Sep-20 21:01N 29°48' W 092°09'0 0.0
2017-Sep-20 20:31N 29°48' W 092°09'0 0.0
2017-Sep-20 20:01N 29°48' W 092°09'0 0.0
2017-Sep-20 19:31N 29°48' W 092°09'0 0.0
2017-Sep-20 19:01N 29°48' W 092°09'0 0.0
2017-Sep-20 18:31N 29°48' W 092°09'0 0.0
2017-Sep-20 18:01N 29°48' W 092°09'0 0.0
2017-Sep-20 17:31N 29°48' W 092°09'0 0.0
2017-Sep-20 17:01N 29°48' W 092°09'0 0.2
2017-Sep-20 16:31N 29°48' W 092°09'0 0.0
2017-Sep-20 16:00N 29°48' W 092°09'0 0.0
2017-Sep-20 15:31N 29°48' W 092°09'0 0.0
2017-Sep-20 15:01N 29°48' W 092°09'0 0.1
2017-Sep-20 14:00N 29°48' W 092°09'0 0.0
2017-Sep-20 13:30N 29°48' W 092°09'0 0.0
2017-Sep-20 13:00N 29°48' W 092°09'0 0.0
2017-Sep-20 12:30N 29°48' W 092°09'0 0.0
2017-Sep-20 12:00N 29°48' W 092°09'2 3.9
2017-Sep-20 11:31N 29°46' W 092°10'7 1.4
2017-Sep-20 06:12N 29°40' W 092°15'312.7
2017-Sep-20 06:00N 29°43' W 092°15'612.0
2017-Sep-20 05:30N 29°47' W 092°10'1 2.4
2017-Sep-20 05:00N 29°47' W 092°09'0 0.0
2017-Sep-20 04:30N 29°47' W 092°09'0 0.1
2017-Sep-20 04:00N 29°48' W 092°09'0 0.0
2017-Sep-20 03:30N 29°48' W 092°09'0 0.0
2017-Sep-20 03:00N 29°48' W 092°09'0 0.0
2017-Sep-20 02:30N 29°48' W 092°09'0 0.0
2017-Sep-20 02:00N 29°48' W 092°09'0 0.0
2017-Sep-20 01:30N 29°48' W 092°09'0 0.0
2017-Sep-20 01:00N 29°48' W 092°09'0 0.0
2017-Sep-20 00:30N 29°48' W 092°09'0 0.0
2017-Sep-20 00:00N 29°48' W 092°09'0 0.0
2017-Sep-19 23:30N 29°48' W 092°09'0 0.0
2017-Sep-19 23:00N 29°48' W 092°09'0 0.0
2017-Sep-19 22:30N 29°48' W 092°09'0 0.0
2017-Sep-19 22:00N 29°48' W 092°09'0 0.0
2017-Sep-19 21:30N 29°48' W 092°09'0 0.0
2017-Sep-19 21:00N 29°48' W 092°09'0 0.0
2017-Sep-19 20:30N 29°48' W 092°09'2 4.9
2017-Sep-19 20:00N 29°46' W 092°11'7 1.6
2017-Sep-19 15:55N 29°41' W 092°15'716.7
2017-Sep-19 15:30N 29°46' W 092°11'2 4.5
2017-Sep-19 15:00N 29°47' W 092°09'0 0.2
2017-Sep-19 14:30N 29°48' W 092°09'0 0.0
2017-Sep-19 14:00N 29°48' W 092°09'0 0.0
2017-Sep-19 13:30N 29°48' W 092°09'0 0.0
2017-Sep-19 13:00N 29°48' W 092°09'0 0.0
2017-Sep-19 12:30N 29°48' W 092°09'0 0.0
2017-Sep-19 12:00N 29°48' W 092°09'0 0.0
2017-Sep-19 11:30N 29°48' W 092°09'0 0.0
2017-Sep-19 11:00N 29°48' W 092°09'0 0.0
2017-Sep-19 10:30N 29°48' W 092°09'0 0.0
2017-Sep-19 10:00N 29°48' W 092°09'0 0.0
2017-Sep-19 09:30N 29°48' W 092°09'0 0.0
2017-Sep-19 09:01N 29°48' W 092°09'0 0.0
2017-Sep-19 08:31N 29°48' W 092°09'0 0.0
2017-Sep-19 08:01N 29°48' W 092°09'0 0.0
2017-Sep-19 07:30N 29°48' W 092°09'0 0.1
2017-Sep-19 07:00N 29°48' W 092°09'0 0.2
2017-Sep-19 06:30N 29°47' W 092°09'0 0.0
2017-Sep-19 06:01N 29°47' W 092°09'3 5.0
2017-Sep-19 05:30N 29°46' W 092°11'7 1.1
2017-Sep-18 23:34N 29°41' W 092°15'120.2
2017-Sep-18 23:30N 29°42' W 092°15'713.9
2017-Sep-18 23:00N 29°47' W 092°10'1 2.3
2017-Sep-18 22:30N 29°48' W 092°09'0 0.0
2017-Sep-18 22:00N 29°48' W 092°09'0 0.0
2017-Sep-18 21:30N 29°48' W 092°09'0 0.0
2017-Sep-18 21:00N 29°48' W 092°09'0 0.0
2017-Sep-18 20:30N 29°48' W 092°09'0 0.0
2017-Sep-18 20:00N 29°48' W 092°09'0 0.0
2017-Sep-18 19:30N 29°48' W 092°09'0 0.0
2017-Sep-18 19:00N 29°48' W 092°09'0 0.2
2017-Sep-18 18:30N 29°47' W 092°09'0 0.0
2017-Sep-18 18:00N 29°47' W 092°09'0 0.2
2017-Sep-18 17:30N 29°48' W 092°09'0 0.0
2017-Sep-18 17:00N 29°48' W 092°09'0 0.0
2017-Sep-18 16:30N 29°48' W 092°09'0 0.0
2017-Sep-18 16:00N 29°48' W 092°09'0 0.0
2017-Sep-18 15:30N 29°48' W 092°09'0 0.2
2017-Sep-18 15:00N 29°47' W 092°09'3 6.7
2017-Sep-18 14:30N 29°46' W 092°12'6 0.5
2017-Sep-18 02:14N 29°41' W 092°15'313.7
2017-Sep-18 02:00N 29°44' W 092°15'611.7
2017-Sep-18 01:30N 29°47' W 092°09'1 1.4
2017-Sep-18 01:00N 29°48' W 092°09'0 0.0
2017-Sep-18 00:30N 29°48' W 092°09'0 0.0
2017-Sep-18 00:00N 29°48' W 092°09'0 0.0
2017-Sep-17 23:30N 29°48' W 092°09'0 0.0
2017-Sep-17 23:00N 29°48' W 092°09'0 0.0
2017-Sep-17 22:30N 29°48' W 092°09'0 0.1
2017-Sep-17 22:00N 29°48' W 092°09'0 0.0
2017-Sep-17 21:30N 29°48' W 092°09'0 0.0
2017-Sep-17 21:00N 29°48' W 092°09'0 0.0
2017-Sep-17 20:30N 29°48' W 092°09'0 0.0
2017-Sep-17 20:00N 29°48' W 092°09'0 0.0
2017-Sep-17 19:30N 29°48' W 092°09'0 0.0
2017-Sep-17 19:00N 29°48' W 092°09'0 0.0
2017-Sep-17 18:30N 29°48' W 092°09'0 0.0
2017-Sep-17 18:00N 29°48' W 092°09'0 0.0
2017-Sep-17 17:30N 29°48' W 092°09'0 0.0
2017-Sep-17 17:00N 29°48' W 092°09'0 0.0
2017-Sep-17 16:30N 29°48' W 092°09'0 0.0
2017-Sep-17 16:00N 29°48' W 092°09'0 0.0
2017-Sep-17 15:30N 29°48' W 092°09'0 0.0
2017-Sep-17 15:00N 29°48' W 092°09'0 0.0
2017-Sep-17 14:30N 29°48' W 092°09'0 0.0
2017-Sep-17 14:00N 29°48' W 092°09'0 0.0
2017-Sep-17 13:30N 29°48' W 092°09'0 0.0
2017-Sep-17 13:00N 29°48' W 092°09'0 0.0
2017-Sep-17 12:30N 29°48' W 092°09'0 0.0
2017-Sep-17 12:00N 29°48' W 092°09'0 0.0
2017-Sep-17 11:30N 29°48' W 092°09'0 0.0
2017-Sep-17 11:00N 29°48' W 092°09'0 0.0
2017-Sep-17 10:30N 29°48' W 092°09'0 0.0
2017-Sep-17 10:00N 29°48' W 092°09'0 0.0
2017-Sep-17 09:30N 29°48' W 092°09'0 0.0
2017-Sep-17 09:00N 29°48' W 092°09'0 0.0
2017-Sep-17 08:30N 29°48' W 092°09'0 0.0
2017-Sep-17 08:00N 29°48' W 092°09'0 0.0
2017-Sep-17 07:30N 29°48' W 092°09'0 0.0
2017-Sep-17 07:00N 29°48' W 092°09'0 0.0
2017-Sep-17 06:30N 29°48' W 092°09'0 0.0
2017-Sep-17 06:00N 29°48' W 092°09'0 0.0
2017-Sep-17 05:30N 29°48' W 092°09'0 0.0
2017-Sep-17 04:59N 29°48' W 092°09'0 0.0
2017-Sep-17 04:30N 29°48' W 092°09'0 0.0
2017-Sep-17 04:00N 29°48' W 092°09'0 0.0
2017-Sep-17 03:30N 29°48' W 092°09'0 0.0
2017-Sep-17 03:00N 29°48' W 092°09'0 0.0
2017-Sep-17 02:30N 29°48' W 092°09'0 0.0
2017-Sep-17 02:00N 29°48' W 092°09'0 0.0
2017-Sep-17 01:30N 29°48' W 092°09'0 0.0
2017-Sep-17 01:00N 29°48' W 092°09'0 0.1
2017-Sep-17 00:30N 29°48' W 092°09'0 0.0
2017-Sep-17 00:00N 29°48' W 092°09'0 0.1
2017-Sep-16 23:30N 29°48' W 092°09'0 0.0
2017-Sep-16 23:00N 29°48' W 092°09'0 0.0
2017-Sep-16 22:30N 29°48' W 092°09'0 0.0
2017-Sep-16 22:00N 29°48' W 092°09'0 0.0
2017-Sep-16 21:30N 29°48' W 092°09'0 0.0
2017-Sep-16 21:00N 29°48' W 092°09'0 0.0
2017-Sep-16 20:30N 29°48' W 092°09'0 0.0
2017-Sep-16 20:00N 29°48' W 092°09'0 0.0
2017-Sep-16 19:30N 29°48' W 092°09'0 0.0
2017-Sep-16 19:00N 29°48' W 092°09'1 2.2
2017-Sep-16 18:30N 29°47' W 092°10'510.6
2017-Sep-16 18:00N 29°44' W 092°15'3 0.3
2017-Sep-16 04:43N 29°40' W 092°15'312.5
2017-Sep-16 04:30N 29°43' W 092°15'611.3
2017-Sep-16 04:00N 29°47' W 092°10'1 2.7
2017-Sep-16 03:30N 29°48' W 092°09'0 0.0
2017-Sep-16 03:01N 29°48' W 092°09'0 0.1
2017-Sep-16 02:31N 29°47' W 092°09'0 0.0
2017-Sep-16 02:01N 29°47' W 092°09'0 0.0
2017-Sep-16 01:28N 29°47' W 092°09'0 0.0
2017-Sep-16 01:00N 29°47' W 092°09'0 0.0
2017-Sep-16 00:31N 29°47' W 092°09'0 0.0
2017-Sep-16 00:01N 29°47' W 092°09'0 0.0
2017-Sep-15 23:31N 29°47' W 092°09'0 0.0
2017-Sep-15 23:01N 29°47' W 092°09'0 0.0
2017-Sep-15 22:31N 29°47' W 092°09'0 0.0
2017-Sep-15 22:01N 29°47' W 092°09'0 0.0
2017-Sep-15 21:30N 29°47' W 092°09'0 0.0
2017-Sep-15 21:00N 29°47' W 092°09'0 0.0
2017-Sep-15 20:31N 29°47' W 092°09'0 0.0
2017-Sep-15 20:01N 29°47' W 092°09'0 0.0
2017-Sep-15 19:30N 29°47' W 092°09'0 0.0
2017-Sep-15 19:01N 29°47' W 092°09'0 0.0
2017-Sep-15 18:31N 29°47' W 092°09'0 0.0
2017-Sep-15 18:00N 29°47' W 092°09'0 0.0
2017-Sep-15 17:30N 29°47' W 092°09'0 0.0
2017-Sep-15 03:40N 29°48' W 092°09'0 0.6
2017-Sep-15 03:31N 29°47' W 092°09'0 0.0
2017-Sep-15 03:01N 29°47' W 092°09'510.7
2017-Sep-15 02:30N 29°44' W 092°14'4 0.9
2017-Sep-14 22:18N 29°41' W 092°15'516.9
2017-Sep-14 22:00N 29°45' W 092°12'4 8.1
2017-Sep-14 21:31N 29°47' W 092°09'0 0.0
2017-Sep-14 21:00N 29°47' W 092°09'0 0.0
2017-Sep-14 20:30N 29°47' W 092°09'0 0.0
2017-Sep-14 20:00N 29°47' W 092°09'0 0.0
2017-Sep-14 19:31N 29°47' W 092°09'0 0.0
2017-Sep-14 19:01N 29°47' W 092°09'0 0.0
2017-Sep-14 18:30N 29°47' W 092°09'0 0.0
2017-Sep-14 18:01N 29°47' W 092°09'0 0.0
2017-Sep-14 17:31N 29°47' W 092°09'0 0.0
2017-Sep-14 17:01N 29°47' W 092°09'0 0.0
2017-Sep-14 16:31N 29°47' W 092°09'0 0.0
2017-Sep-14 16:00N 29°47' W 092°09'0 0.0
2017-Sep-14 15:30N 29°47' W 092°09'0 0.0
2017-Sep-14 15:01N 29°47' W 092°09'0 0.0
2017-Sep-14 14:31N 29°47' W 092°09'0 0.0
2017-Sep-14 14:01N 29°47' W 092°09'1 1.2
2017-Sep-14 13:31N 29°47' W 092°09'  
Track history (hours):
 
Tides and Currents Weather Stations Pressure Air Temp Water Temp Dewpoint Dewpoint Depression Visibility Wind Speed Wind Dir Waves Ship Positions

MiSS Claire

Owner: Captain Elliott's Party Boats, Inc., Freeport, TX. More information available from US FCC via Universal Licensing System and Coast Guard Vessel Documentation Center.

Last reported at 2017-Sep-24 10:31 UTC. Time now 2017-Sep-24 10:40 UTC.
Position N 29°48' W 092°09'.

Length 52 m; draft 3.5 m.

Type: Passenger vessel. MMSI: 367119570.

Date/timePositionNaut miles runAvg speedWind from/ knotsBaromVisibWave heightAir tempDewpointWater temp
2017-Sep-24 10:31N 29°48' W 092°09'0 0.0
2017-Sep-24 10:01N 29°48' W 092°09'0 0.0
2017-Sep-24 09:30N 29°48' W 092°09'0 0.0
2017-Sep-24 09:01N 29°48' W 092°09'0 0.0
2017-Sep-24 08:30N 29°48' W 092°09'0 0.0
2017-Sep-24 08:00N 29°48' W 092°09'0 0.0
2017-Sep-24 07:31N 29°48' W 092°09'0 0.0
2017-Sep-24 07:00N 29°48' W 092°09'0 0.0
2017-Sep-24 06:31N 29°48' W 092°09'0 0.0
2017-Sep-24 06:01N 29°48' W 092°09'0 0.0
2017-Sep-24 05:30N 29°48' W 092°09'0 0.0
2017-Sep-24 05:00N 29°48' W 092°09'1 1.3
2017-Sep-24 04:30N 29°47' W 092°09'9 1.6
2017-Sep-23 23:09N 29°40' W 092°15'319.3
2017-Sep-23 23:00N 29°43' W 092°15'713.1
2017-Sep-23 22:30N 29°47' W 092°09'0 0.9
2017-Sep-23 22:00N 29°47' W 092°09'0 0.0
2017-Sep-23 21:30N 29°47' W 092°09'0 0.0
2017-Sep-23 21:00N 29°47' W 092°09'0 0.0
2017-Sep-23 20:30N 29°47' W 092°09'0 0.0
2017-Sep-23 20:00N 29°47' W 092°09'9 0.2
2017-Sep-21 20:54N 29°41' W 092°15'615.5
2017-Sep-21 20:31N 29°46' W 092°12'3 6.2
2017-Sep-21 20:01N 29°48' W 092°09'0 0.0
2017-Sep-21 19:27N 29°48' W 092°09'0 0.0
2017-Sep-21 19:01N 29°48' W 092°09'0 0.0
2017-Sep-21 18:31N 29°48' W 092°09'0 0.0
2017-Sep-21 18:01N 29°48' W 092°09'0 0.1
2017-Sep-21 17:30N 29°47' W 092°09'0 0.0
2017-Sep-21 17:01N 29°47' W 092°09'0 0.0
2017-Sep-21 16:24N 29°47' W 092°09'0 0.0
2017-Sep-21 16:01N 29°47' W 092°09'0 0.0
2017-Sep-21 15:24N 29°47' W 092°09'0 0.7
2017-Sep-21 15:00N 29°47' W 092°09'9 1.7
2017-Sep-21 09:43N 29°41' W 092°15'419.4
2017-Sep-21 09:31N 29°44' W 092°14'5 9.7
2017-Sep-21 09:00N 29°47' W 092°09'1 1.2
2017-Sep-21 08:30N 29°47' W 092°09'0 0.0
2017-Sep-21 08:01N 29°47' W 092°09'0 0.0
2017-Sep-21 07:30N 29°47' W 092°09'0 0.0
2017-Sep-21 07:01N 29°47' W 092°09'0 0.0
2017-Sep-21 06:31N 29°47' W 092°09'0 0.1
2017-Sep-21 06:01N 29°48' W 092°09'0 0.0
2017-Sep-21 05:31N 29°48' W 092°09'0 0.0
2017-Sep-21 05:01N 29°48' W 092°09'0 0.0
2017-Sep-21 04:31N 29°48' W 092°09'0 0.0
2017-Sep-21 04:00N 29°48' W 092°09'0 0.0
2017-Sep-21 03:31N 29°48' W 092°09'0 0.0
2017-Sep-21 03:01N 29°48' W 092°09'0 0.0
2017-Sep-21 02:30N 29°48' W 092°09'0 0.0
2017-Sep-21 02:01N 29°48' W 092°09'0 0.0
2017-Sep-21 01:31N 29°48' W 092°09'0 0.0
2017-Sep-21 01:01N 29°48' W 092°09'0 0.0
2017-Sep-21 00:31N 29°48' W 092°09'0 0.0
2017-Sep-21 00:01N 29°48' W 092°09'0 0.0
2017-Sep-20 23:31N 29°48' W 092°09'0 0.0
2017-Sep-20 23:00N 29°48' W 092°09'0 0.0
2017-Sep-20 22:31N 29°48' W 092°09'0 0.0
2017-Sep-20 22:01N 29°48' W 092°09'0 0.0
2017-Sep-20 21:31N 29°48' W 092°09'0 0.0
2017-Sep-20 21:01N 29°48' W 092°09'0 0.0
2017-Sep-20 20:31N 29°48' W 092°09'0 0.0
2017-Sep-20 20:01N 29°48' W 092°09'0 0.0
2017-Sep-20 19:31N 29°48' W 092°09'0 0.0
2017-Sep-20 19:01N 29°48' W 092°09'0 0.0
2017-Sep-20 18:31N 29°48' W 092°09'0 0.0
2017-Sep-20 18:01N 29°48' W 092°09'0 0.0
2017-Sep-20 17:31N 29°48' W 092°09'0 0.0
2017-Sep-20 17:01N 29°48' W 092°09'0 0.2
2017-Sep-20 16:31N 29°48' W 092°09'0 0.0
2017-Sep-20 16:00N 29°48' W 092°09'0 0.0
2017-Sep-20 15:31N 29°48' W 092°09'0 0.0
2017-Sep-20 15:01N 29°48' W 092°09'0 0.1
2017-Sep-20 14:00N 29°48' W 092°09'0 0.0
2017-Sep-20 13:30N 29°48' W 092°09'0 0.0
2017-Sep-20 13:00N 29°48' W 092°09'0 0.0
2017-Sep-20 12:30N 29°48' W 092°09'0 0.0
2017-Sep-20 12:00N 29°48' W 092°09'2 3.9
2017-Sep-20 11:31N 29°46' W 092°10'7 1.4
2017-Sep-20 06:12N 29°40' W 092°15'312.7
2017-Sep-20 06:00N 29°43' W 092°15'612.0
2017-Sep-20 05:30N 29°47' W 092°10'1 2.4
2017-Sep-20 05:00N 29°47' W 092°09'0 0.0
2017-Sep-20 04:30N 29°47' W 092°09'0 0.1
2017-Sep-20 04:00N 29°48' W 092°09'0 0.0
2017-Sep-20 03:30N 29°48' W 092°09'0 0.0
2017-Sep-20 03:00N 29°48' W 092°09'0 0.0
2017-Sep-20 02:30N 29°48' W 092°09'0 0.0
2017-Sep-20 02:00N 29°48' W 092°09'0 0.0
2017-Sep-20 01:30N 29°48' W 092°09'0 0.0
2017-Sep-20 01:00N 29°48' W 092°09'0 0.0
2017-Sep-20 00:30N 29°48' W 092°09'0 0.0
2017-Sep-20 00:00N 29°48' W 092°09'0 0.0
2017-Sep-19 23:30N 29°48' W 092°09'0 0.0
2017-Sep-19 23:00N 29°48' W 092°09'0 0.0
2017-Sep-19 22:30N 29°48' W 092°09'0 0.0
2017-Sep-19 22:00N 29°48' W 092°09'0 0.0
2017-Sep-19 21:30N 29°48' W 092°09'0 0.0
2017-Sep-19 21:00N 29°48' W 092°09'0 0.0
2017-Sep-19 20:30N 29°48' W 092°09'2 4.9
2017-Sep-19 20:00N 29°46' W 092°11'7 1.6
2017-Sep-19 15:55N 29°41' W 092°15'716.7
2017-Sep-19 15:30N 29°46' W 092°11'2 4.5
2017-Sep-19 15:00N 29°47' W 092°09'0 0.2
2017-Sep-19 14:30N 29°48' W 092°09'0 0.0
2017-Sep-19 14:00N 29°48' W 092°09'0 0.0
2017-Sep-19 13:30N 29°48' W 092°09'0 0.0
2017-Sep-19 13:00N 29°48' W 092°09'0 0.0
2017-Sep-19 12:30N 29°48' W 092°09'0 0.0
2017-Sep-19 12:00N 29°48' W 092°09'0 0.0
2017-Sep-19 11:30N 29°48' W 092°09'0 0.0
2017-Sep-19 11:00N 29°48' W 092°09'0 0.0
2017-Sep-19 10:30N 29°48' W 092°09'0 0.0
2017-Sep-19 10:00N 29°48' W 092°09'0 0.0
2017-Sep-19 09:30N 29°48' W 092°09'0 0.0
2017-Sep-19 09:01N 29°48' W 092°09'0 0.0
2017-Sep-19 08:31N 29°48' W 092°09'0 0.0
2017-Sep-19 08:01N 29°48' W 092°09'0 0.0
2017-Sep-19 07:30N 29°48' W 092°09'0 0.1
2017-Sep-19 07:00N 29°48' W 092°09'0 0.2
2017-Sep-19 06:30N 29°47' W 092°09'0 0.0
2017-Sep-19 06:01N 29°47' W 092°09'3 5.0
2017-Sep-19 05:30N 29°46' W 092°11'7 1.1
2017-Sep-18 23:34N 29°41' W 092°15'120.2
2017-Sep-18 23:30N 29°42' W 092°15'713.9
2017-Sep-18 23:00N 29°47' W 092°10'1 2.3
2017-Sep-18 22:30N 29°48' W 092°09'0 0.0
2017-Sep-18 22:00N 29°48' W 092°09'0 0.0
2017-Sep-18 21:30N 29°48' W 092°09'0 0.0
2017-Sep-18 21:00N 29°48' W 092°09'0 0.0
2017-Sep-18 20:30N 29°48' W 092°09'0 0.0
2017-Sep-18 20:00N 29°48' W 092°09'0 0.0
2017-Sep-18 19:30N 29°48' W 092°09'0 0.0
2017-Sep-18 19:00N 29°48' W 092°09'0 0.2
2017-Sep-18 18:30N 29°47' W 092°09'0 0.0
2017-Sep-18 18:00N 29°47' W 092°09'0 0.2
2017-Sep-18 17:30N 29°48' W 092°09'0 0.0
2017-Sep-18 17:00N 29°48' W 092°09'0 0.0
2017-Sep-18 16:30N 29°48' W 092°09'0 0.0
2017-Sep-18 16:00N 29°48' W 092°09'0 0.0
2017-Sep-18 15:30N 29°48' W 092°09'0 0.2
2017-Sep-18 15:00N 29°47' W 092°09'3 6.7
2017-Sep-18 14:30N 29°46' W 092°12'6 0.5
2017-Sep-18 02:14N 29°41' W 092°15'313.7
2017-Sep-18 02:00N 29°44' W 092°15'611.7
2017-Sep-18 01:30N 29°47' W 092°09'1 1.4
2017-Sep-18 01:00N 29°48' W 092°09'0 0.0
2017-Sep-18 00:30N 29°48' W 092°09'0 0.0
2017-Sep-18 00:00N 29°48' W 092°09'0 0.0
2017-Sep-17 23:30N 29°48' W 092°09'0 0.0
2017-Sep-17 23:00N 29°48' W 092°09'0 0.0
2017-Sep-17 22:30N 29°48' W 092°09'0 0.1
2017-Sep-17 22:00N 29°48' W 092°09'0 0.0
2017-Sep-17 21:30N 29°48' W 092°09'0 0.0
2017-Sep-17 21:00N 29°48' W 092°09'0 0.0
2017-Sep-17 20:30N 29°48' W 092°09'0 0.0
2017-Sep-17 20:00N 29°48' W 092°09'0 0.0
2017-Sep-17 19:30N 29°48' W 092°09'0 0.0
2017-Sep-17 19:00N 29°48' W 092°09'0 0.0
2017-Sep-17 18:30N 29°48' W 092°09'0 0.0
2017-Sep-17 18:00N 29°48' W 092°09'0 0.0
2017-Sep-17 17:30N 29°48' W 092°09'0 0.0
2017-Sep-17 17:00N 29°48' W 092°09'0 0.0
2017-Sep-17 16:30N 29°48' W 092°09'0 0.0
2017-Sep-17 16:00N 29°48' W 092°09'0 0.0
2017-Sep-17 15:30N 29°48' W 092°09'0 0.0
2017-Sep-17 15:00N 29°48' W 092°09'0 0.0
2017-Sep-17 14:30N 29°48' W 092°09'0 0.0
2017-Sep-17 14:00N 29°48' W 092°09'0 0.0
2017-Sep-17 13:30N 29°48' W 092°09'0 0.0
2017-Sep-17 13:00N 29°48' W 092°09'0 0.0
2017-Sep-17 12:30N 29°48' W 092°09'0 0.0
2017-Sep-17 12:00N 29°48' W 092°09'0 0.0
2017-Sep-17 11:30N 29°48' W 092°09'0 0.0
2017-Sep-17 11:00N 29°48' W 092°09'0 0.0
2017-Sep-17 10:30N 29°48' W 092°09'0 0.0
2017-Sep-17 10:00N 29°48' W 092°09'0 0.0
2017-Sep-17 09:30N 29°48' W 092°09'0 0.0
2017-Sep-17 09:00N 29°48' W 092°09'0 0.0
2017-Sep-17 08:30N 29°48' W 092°09'0 0.0
2017-Sep-17 08:00N 29°48' W 092°09'0 0.0
2017-Sep-17 07:30N 29°48' W 092°09'0 0.0
2017-Sep-17 07:00N 29°48' W 092°09'0 0.0
2017-Sep-17 06:30N 29°48' W 092°09'0 0.0
2017-Sep-17 06:00N 29°48' W 092°09'0 0.0
2017-Sep-17 05:30N 29°48' W 092°09'0 0.0
2017-Sep-17 04:59N 29°48' W 092°09'0 0.0
2017-Sep-17 04:30N 29°48' W 092°09'0 0.0
2017-Sep-17 04:00N 29°48' W 092°09'0 0.0
2017-Sep-17 03:30N 29°48' W 092°09'0 0.0
2017-Sep-17 03:00N 29°48' W 092°09'0 0.0
2017-Sep-17 02:30N 29°48' W 092°09'0 0.0
2017-Sep-17 02:00N 29°48' W 092°09'0 0.0
2017-Sep-17 01:30N 29°48' W 092°09'0 0.0
2017-Sep-17 01:00N 29°48' W 092°09'0 0.1
2017-Sep-17 00:30N 29°48' W 092°09'0 0.0
2017-Sep-17 00:00N 29°48' W 092°09'0 0.1
2017-Sep-16 23:30N 29°48' W 092°09'0 0.0
2017-Sep-16 23:00N 29°48' W 092°09'0 0.0
2017-Sep-16 22:30N 29°48' W 092°09'0 0.0
2017-Sep-16 22:00N 29°48' W 092°09'0 0.0
2017-Sep-16 21:30N 29°48' W 092°09'0 0.0
2017-Sep-16 21:00N 29°48' W 092°09'0 0.0
2017-Sep-16 20:30N 29°48' W 092°09'0 0.0
2017-Sep-16 20:00N 29°48' W 092°09'0 0.0
2017-Sep-16 19:30N 29°48' W 092°09'0 0.0
2017-Sep-16 19:00N 29°48' W 092°09'1 2.2
2017-Sep-16 18:30N 29°47' W 092°10'510.6
2017-Sep-16 18:00N 29°44' W 092°15'3 0.3
2017-Sep-16 04:43N 29°40' W 092°15'312.5
2017-Sep-16 04:30N 29°43' W 092°15'611.3
2017-Sep-16 04:00N 29°47' W 092°10'1 2.7
2017-Sep-16 03:30N 29°48' W 092°09'0 0.0
2017-Sep-16 03:01N 29°48' W 092°09'0 0.1
2017-Sep-16 02:31N 29°47' W 092°09'0 0.0
2017-Sep-16 02:01N 29°47' W 092°09'0 0.0
2017-Sep-16 01:28N 29°47' W 092°09'0 0.0
2017-Sep-16 01:00N 29°47' W 092°09'0 0.0
2017-Sep-16 00:31N 29°47' W 092°09'0 0.0
2017-Sep-16 00:01N 29°47' W 092°09'0 0.0
2017-Sep-15 23:31N 29°47' W 092°09'0 0.0
2017-Sep-15 23:01N 29°47' W 092°09'0 0.0
2017-Sep-15 22:31N 29°47' W 092°09'0 0.0
2017-Sep-15 22:01N 29°47' W 092°09'0 0.0
2017-Sep-15 21:30N 29°47' W 092°09'0 0.0
2017-Sep-15 21:00N 29°47' W 092°09'0 0.0
2017-Sep-15 20:31N 29°47' W 092°09'0 0.0
2017-Sep-15 20:01N 29°47' W 092°09'0 0.0
2017-Sep-15 19:30N 29°47' W 092°09'0 0.0
2017-Sep-15 19:01N 29°47' W 092°09'0 0.0
2017-Sep-15 18:31N 29°47' W 092°09'0 0.0
2017-Sep-15 18:00N 29°47' W 092°09'0 0.0
2017-Sep-15 17:30N 29°47' W 092°09'0 0.0
2017-Sep-15 03:40N 29°48' W 092°09'0 0.6
2017-Sep-15 03:31N 29°47' W 092°09'0 0.0
2017-Sep-15 03:01N 29°47' W 092°09'510.7
2017-Sep-15 02:30N 29°44' W 092°14'4 0.9
2017-Sep-14 22:18N 29°41' W 092°15'516.9
2017-Sep-14 22:00N 29°45' W 092°12'4 8.1
2017-Sep-14 21:31N 29°47' W 092°09'0 0.0
2017-Sep-14 21:00N 29°47' W 092°09'0 0.0
2017-Sep-14 20:30N 29°47' W 092°09'0 0.0
2017-Sep-14 20:00N 29°47' W 092°09'0 0.0
2017-Sep-14 19:31N 29°47' W 092°09'0 0.0
2017-Sep-14 19:01N 29°47' W 092°09'0 0.0
2017-Sep-14 18:30N 29°47' W 092°09'0 0.0
2017-Sep-14 18:01N 29°47' W 092°09'0 0.0
2017-Sep-14 17:31N 29°47' W 092°09'0 0.0
2017-Sep-14 17:01N 29°47' W 092°09'0 0.0
2017-Sep-14 16:31N 29°47' W 092°09'0 0.0
2017-Sep-14 16:00N 29°47' W 092°09'0 0.0
2017-Sep-14 15:30N 29°47' W 092°09'0 0.0
2017-Sep-14 15:01N 29°47' W 092°09'0 0.0
2017-Sep-14 14:31N 29°47' W 092°09'0 0.0
2017-Sep-14 14:01N 29°47' W 092°09'1 1.2
2017-Sep-14 13:31N 29°47' W 092°09'  

Dump ship's entire track history